Time;durP1;ratioP1;P1;durP2;ratioP2;P2;SDS_P1;SDS_P2;PMS_P1;PMS_P2;Temp;Humidity;BMP_temperature;BMP_pressure;BME280_temperature;BME280_humidity;BME280_pressure;Samples;Min_cycle;Max_cycle;Signal;HPM_P1;HPM_P2
2021/09/01 00:00:42;;;;;;;2.35;1.02;;;14.90;56.30;;;;;;5013147;28;20255;-50
2021/09/01 00:03:13;;;;;;;1.35;1.10;;;14.90;56.40;;;;;;5014140;28;20239;-49
2021/09/01 00:05:43;;;;;;;1.30;1.10;;;14.90;56.40;;;;;;5012894;28;20269;-49
2021/09/01 00:08:14;;;;;;;2.00;1.10;;;15.00;56.50;;;;;;5013265;28;20247;-50
2021/09/01 00:10:44;;;;;;;1.05;0.90;;;15.00;56.50;;;;;;5013277;28;20228;-53
2021/09/01 00:13:14;;;;;;;1.92;1.00;;;15.00;56.60;;;;;;5013395;28;20260;-51
2021/09/01 00:15:47;;;;;;;1.73;0.82;;;15.00;56.60;;;;;;5013249;28;20243;-52
2021/09/01 00:18:17;;;;;;;1.60;1.23;;;15.00;56.60;;;;;;5013105;28;20259;-46
2021/09/01 00:20:48;;;;;;;1.52;1.00;;;15.10;56.70;;;;;;5012709;28;20236;-48
2021/09/01 00:23:18;;;;;;;1.40;1.00;;;15.10;57.50;;;;;;5012325;28;20232;-47
2021/09/01 00:25:48;;;;;;;1.30;1.00;;;15.20;57.40;;;;;;5012193;28;20227;-49
2021/09/01 00:28:19;;;;;;;1.10;0.90;;;15.20;57.50;;;;;;5012520;28;20249;-47
2021/09/01 00:30:51;;;;;;;1.85;1.27;;;15.20;57.40;;;;;;5012546;28;20263;-47
2021/09/01 00:33:22;;;;;;;1.52;1.05;;;15.30;57.40;;;;;;5012463;28;20264;-49
2021/09/01 00:35:52;;;;;;;1.30;1.17;;;15.30;57.20;;;;;;5012775;28;20343;-48
2021/09/01 00:38:23;;;;;;;2.03;1.10;;;15.30;57.10;;;;;;5012942;28;20583;-52
2021/09/01 00:40:53;;;;;;;1.10;0.80;;;15.40;57.10;;;;;;5012916;28;20347;-47
2021/09/01 00:43:24;;;;;;;1.77;1.00;;;15.40;57.10;;;;;;5012365;28;20679;-50
2021/09/01 00:45:56;;;;;;;1.38;0.98;;;15.40;57.20;;;;;;5011972;28;20648;-46
2021/09/01 00:48:27;;;;;;;1.42;0.98;;;15.50;57.20;;;;;;5012270;28;20256;-49
2021/09/01 00:50:58;;;;;;;1.52;1.00;;;15.50;57.20;;;;;;5012519;28;20665;-58
2021/09/01 00:53:29;;;;;;;1.88;0.90;;;15.60;57.10;;;;;;5012479;28;20225;-48
2021/09/01 00:55:59;;;;;;;2.15;1.10;;;15.50;57.10;;;;;;5011312;28;20224;-50
2021/09/01 00:58:34;;;;;;;1.55;0.90;;;15.60;57.10;;;;;;5013059;28;20256;-46
2021/09/01 01:01:16;;;;;;;1.77;1.00;;;15.60;57.10;;;;;;5011658;28;20547;-48
2021/09/01 01:03:50;;;;;;;2.08;1.02;;;15.70;57.20;;;;;;5012832;28;20204;-46
2021/09/01 01:06:21;;;;;;;1.75;1.10;;;15.70;57.40;;;;;;5012581;28;20464;-47
2021/09/01 01:08:52;;;;;;;1.25;1.10;;;15.70;57.70;;;;;;5011914;28;20248;-50
2021/09/01 01:11:22;;;;;;;2.20;1.10;;;15.80;57.90;;;;;;5012477;28;20240;-48
2021/09/01 01:13:52;;;;;;;1.52;1.10;;;15.80;57.70;;;;;;5023093;23;20709;-45
2021/09/01 01:16:25;;;;;;;1.77;1.02;;;15.80;57.60;;;;;;5012187;28;20687;-41
2021/09/01 01:18:56;;;;;;;1.70;1.02;;;15.90;57.50;;;;;;5011546;28;20685;-42
2021/09/01 01:21:27;;;;;;;1.17;1.00;;;15.90;57.40;;;;;;5011289;28;20224;-45
2021/09/01 01:23:58;;;;;;;1.92;0.80;;;16.00;57.50;;;;;;5011412;28;20262;-44
2021/09/01 01:26:30;;;;;;;1.38;0.90;;;16.00;57.40;;;;;;5012035;28;20239;-40
2021/09/01 01:29:01;;;;;;;4.82;1.10;;;16.00;57.40;;;;;;5011452;28;20310;-53
2021/09/01 01:31:31;;;;;;;3.15;1.00;;;16.00;57.40;;;;;;5012008;28;20236;-40
2021/09/01 01:34:02;;;;;;;1.25;0.80;;;16.10;57.40;;;;;;5012065;28;20256;-45
2021/09/01 01:36:32;;;;;;;1.75;0.90;;;16.10;57.40;;;;;;5012337;28;20288;-47
2021/09/01 01:39:03;;;;;;;1.70;1.08;;;16.20;57.40;;;;;;5011815;28;20263;-46
2021/09/01 01:41:35;;;;;;;1.15;0.90;;;16.20;57.40;;;;;;5011599;28;20233;-51
2021/09/01 01:44:06;;;;;;;1.55;0.90;;;16.20;57.40;;;;;;5011409;28;20610;-42
2021/09/01 01:46:36;;;;;;;1.55;1.00;;;16.20;57.30;;;;;;4992386;28;20284;-50
2021/09/01 01:49:06;;;;;;;1.25;1.05;;;16.30;57.50;;;;;;4992441;28;20296;-41
2021/09/01 01:51:37;;;;;;;0.95;0.60;;;16.30;57.50;;;;;;4992595;28;20262;-48
2021/09/01 01:54:07;;;;;;;1.33;0.77;;;16.30;57.30;;;;;;4992306;28;20264;-48
2021/09/01 01:56:39;;;;;;;1.02;0.90;;;16.30;57.30;;;;;;4992090;28;20232;-52
2021/09/01 01:59:10;;;;;;;1.42;0.88;;;16.40;57.20;;;;;;4992110;28;20320;-51
2021/09/01 02:01:40;;;;;;;2.47;0.90;;;16.40;57.20;;;;;;4993070;28;20294;-45
2021/09/01 02:04:11;;;;;;;1.23;0.90;;;16.40;57.20;;;;;;5010764;28;20207;-53
2021/09/01 02:06:41;;;;;;;1.40;0.80;;;16.50;57.10;;;;;;5010597;28;20224;-53
2021/09/01 02:09:12;;;;;;;1.33;0.70;;;16.50;57.00;;;;;;5010608;28;20263;-56
2021/09/01 02:11:44;;;;;;;0.88;0.68;;;16.50;56.90;;;;;;5007643;28;20272;-46
2021/09/01 02:14:14;;;;;;;1.30;0.90;;;16.60;56.90;;;;;;5006842;23;20320;-53
2021/09/01 02:16:45;;;;;;;1.67;0.77;;;16.60;56.70;;;;;;4991705;28;20201;-47
2021/09/01 02:19:15;;;;;;;2.13;0.80;;;16.60;56.70;;;;;;4990908;28;20252;-47
2021/09/01 02:21:46;;;;;;;1.33;0.90;;;16.70;56.60;;;;;;4990421;28;20233;-53
2021/09/01 02:24:16;;;;;;;1.17;0.73;;;16.70;56.60;;;;;;4990741;28;20197;-47
2021/09/01 02:26:48;;;;;;;0.82;0.60;;;16.70;56.60;;;;;;4991280;28;20296;-45
2021/09/01 02:29:19;;;;;;;1.25;1.00;;;16.70;56.60;;;;;;4990479;28;20296;-46
2021/09/01 02:31:49;;;;;;;1.13;0.70;;;16.80;56.60;;;;;;4990924;28;20231;-53
2021/09/01 02:34:20;;;;;;;1.00;0.65;;;16.80;56.50;;;;;;4991225;28;20300;-55
2021/09/01 02:36:50;;;;;;;2.15;1.23;;;16.80;56.30;;;;;;4989860;28;20233;-52
2021/09/01 02:39:21;;;;;;;1.83;0.80;;;16.90;56.30;;;;;;4990750;28;20253;-49
2021/09/01 02:41:53;;;;;;;2.03;0.80;;;16.90;56.30;;;;;;4990510;28;20225;-48
2021/09/01 02:44:24;;;;;;;1.05;0.90;;;16.90;56.20;;;;;;4989990;28;20197;-47
2021/09/01 02:46:54;;;;;;;1.17;0.82;;;17.00;56.10;;;;;;4990201;28;20240;-47
2021/09/01 02:49:25;;;;;;;1.02;0.57;;;17.00;56.10;;;;;;4990478;28;20253;-47
2021/09/01 02:51:55;;;;;;;1.10;0.77;;;17.00;55.90;;;;;;4990504;28;20288;-51
2021/09/01 02:54:26;;;;;;;1.13;0.98;;;17.00;55.90;;;;;;4990400;28;20260;-50
2021/09/01 02:56:58;;;;;;;1.38;0.95;;;17.10;55.90;;;;;;4990229;28;20224;-48
2021/09/01 02:59:28;;;;;;;1.67;0.88;;;17.10;55.90;;;;;;4989567;28;20308;-55
2021/09/01 03:01:59;;;;;;;1.60;0.88;;;17.20;55.80;;;;;;4990729;28;20256;-54
2021/09/01 03:04:29;;;;;;;1.17;0.77;;;17.20;55.70;;;;;;4991192;28;20288;-55
2021/09/01 03:07:00;;;;;;;1.23;0.60;;;17.20;55.70;;;;;;4990634;28;20638;-53
2021/09/01 03:09:30;;;;;;;1.52;0.77;;;17.20;55.60;;;;;;4990778;28;20221;-51
2021/09/01 03:12:02;;;;;;;1.95;0.88;;;17.30;55.60;;;;;;4990687;28;20234;-46
2021/09/01 03:14:33;;;;;;;3.35;1.00;;;17.30;55.60;;;;;;5002423;23;20263;-41
2021/09/01 03:17:03;;;;;;;0.73;0.70;;;17.30;55.50;;;;;;4991058;28;20229;-44
2021/09/01 03:19:34;;;;;;;1.70;0.80;;;17.30;55.40;;;;;;4989752;28;20490;-43
2021/09/01 03:22:04;;;;;;;2.67;0.95;;;17.40;55.40;;;;;;4989396;28;20225;-45
2021/09/01 03:24:35;;;;;;;0.93;0.63;;;17.40;55.30;;;;;;4973602;28;20237;-49
2021/09/01 03:27:07;;;;;;;1.83;0.80;;;17.40;55.20;;;;;;4974470;28;20293;-47
2021/09/01 03:29:37;;;;;;;2.50;0.85;;;17.50;55.10;;;;;;4975173;28;20261;-50
2021/09/01 03:32:08;;;;;;;1.70;1.00;;;17.40;55.00;;;;;;4994063;28;20236;-42
2021/09/01 03:34:39;;;;;;;1.20;0.73;;;17.50;55.00;;;;;;4994175;28;20312;-51
2021/09/01 03:37:09;;;;;;;1.15;0.95;;;17.50;54.90;;;;;;4994707;28;20233;-53
2021/09/01 03:39:40;;;;;;;1.70;0.70;;;17.50;55.00;;;;;;4984470;28;20253;-51
2021/09/01 03:42:12;;;;;;;1.38;0.80;;;17.50;54.90;;;;;;4975366;28;20233;-49
2021/09/01 03:44:42;;;;;;;1.85;0.65;;;17.60;54.90;;;;;;4975368;28;20580;-45
2021/09/01 03:47:13;;;;;;;2.55;0.95;;;17.60;54.90;;;;;;4975460;28;20677;-43
2021/09/01 03:49:43;;;;;;;2.63;0.80;;;17.60;54.90;;;;;;4978742;28;20734;-57
2021/09/01 03:52:14;;;;;;;1.50;0.70;;;17.60;54.90;;;;;;4994753;28;20679;-45
2021/09/01 03:54:44;;;;;;;2.30;0.70;;;17.60;54.80;;;;;;4993615;28;20216;-54
2021/09/01 03:57:16;;;;;;;2.60;0.70;;;17.70;55.30;;;;;;4994671;28;20205;-52
2021/09/01 03:59:47;;;;;;;1.88;0.77;;;17.70;54.80;;;;;;4994234;28;20323;-41
2021/09/01 04:02:17;;;;;;;2.35;0.73;;;17.70;54.60;;;;;;4994199;28;20344;-41
2021/09/01 04:04:48;;;;;;;1.60;0.82;;;17.70;54.60;;;;;;4994289;28;20233;-51
2021/09/01 04:07:18;;;;;;;2.30;0.90;;;17.80;54.60;;;;;;4994458;28;20233;-44
2021/09/01 04:09:48;;;;;;;1.90;0.75;;;17.80;54.50;;;;;;4994336;28;20304;-41
2021/09/01 04:14:53;;;;;;;1.45;0.70;;;17.90;54.70;;;;;;5006186;28;20224;-49
2021/09/01 04:17:29;;;;;;;1.63;0.70;;;17.90;54.70;;;;;;4997590;28;20198;-51
2021/09/01 04:19:59;;;;;;;0.82;0.47;;;17.90;54.60;;;;;;4973948;28;20229;-48
2021/09/01 04:22:30;;;;;;;1.63;0.68;;;17.90;54.50;;;;;;4973884;28;20198;-56
2021/09/01 04:25:00;;;;;;;1.77;0.73;;;18.00;54.60;;;;;;4973383;28;20229;-47
2021/09/01 04:27:31;;;;;;;1.15;0.70;;;17.90;54.50;;;;;;4974432;28;20238;-55
2021/09/01 04:30:03;;;;;;;1.90;0.88;;;17.90;54.40;;;;;;4974198;28;20225;-48
2021/09/01 04:32:33;;;;;;;1.90;0.88;;;18.00;54.40;;;;;;4974193;28;20245;-48
2021/09/01 04:35:04;;;;;;;1.50;0.68;;;18.00;54.40;;;;;;4973146;28;20663;-52
2021/09/01 04:37:34;;;;;;;1.45;0.80;;;18.00;54.30;;;;;;4973040;28;20237;-48
2021/09/01 04:40:05;;;;;;;1.10;0.80;;;18.00;54.30;;;;;;4973684;28;20265;-47
2021/09/01 04:42:35;;;;;;;2.40;0.70;;;18.00;54.30;;;;;;4973677;28;20244;-49
2021/09/01 04:45:08;;;;;;;1.73;0.80;;;18.10;54.20;;;;;;4974123;28;20741;-46
2021/09/01 04:47:39;;;;;;;2.13;0.95;;;18.10;54.20;;;;;;4973491;28;20241;-50
2021/09/01 04:50:10;;;;;;;1.35;0.75;;;18.10;54.10;;;;;;4973766;28;20202;-47
2021/09/01 04:52:40;;;;;;;2.80;1.50;;;18.10;54.10;;;;;;4973941;28;20323;-48
2021/09/01 04:55:11;;;;;;;1.60;1.33;;;18.10;54.10;;;;;;4972999;28;20317;-49
2021/09/01 04:57:42;;;;;;;1.63;1.17;;;18.10;54.10;;;;;;4974034;28;20233;-47
2021/09/01 05:00:15;;;;;;;2.72;1.85;;;18.10;54.10;;;;;;4973998;28;20647;-50
2021/09/01 05:02:45;;;;;;;1.73;1.42;;;18.10;54.00;;;;;;4973936;28;20277;-48
2021/09/01 05:05:15;;;;;;;2.28;1.92;;;18.10;54.00;;;;;;4973408;28;20233;-45
2021/09/01 05:07:46;;;;;;;1.77;1.67;;;18.10;53.90;;;;;;4973735;28;20244;-47
2021/09/01 05:10:16;;;;;;;2.42;1.92;;;18.10;53.70;;;;;;4972814;28;20470;-48
2021/09/01 05:12:49;;;;;;;3.17;2.20;;;18.10;53.60;;;;;;4973757;28;20249;-50
2021/09/01 05:15:22;;;;;;;2.42;2.00;;;18.10;53.70;;;;;;4972434;28;20706;-50
2021/09/01 05:17:52;;;;;;;3.95;2.00;;;18.10;53.70;;;;;;4973078;28;20222;-49
2021/09/01 05:20:23;;;;;;;2.70;1.70;;;18.10;53.70;;;;;;4971915;28;20270;-49
2021/09/01 05:22:54;;;;;;;6.18;2.20;;;18.10;53.70;;;;;;4970558;28;20714;-48
2021/09/01 05:25:25;;;;;;;3.35;2.03;;;18.10;53.60;;;;;;4973186;28;20234;-48
2021/09/01 05:27:55;;;;;;;2.30;1.63;;;18.10;53.60;;;;;;4973368;28;20194;-48
2021/09/01 05:30:27;;;;;;;2.50;1.60;;;18.10;53.50;;;;;;4971770;28;20249;-53
2021/09/01 05:32:58;;;;;;;1.88;1.75;;;18.10;54.10;;;;;;4973377;28;20256;-48
2021/09/01 05:35:28;;;;;;;2.80;2.10;;;18.10;53.50;;;;;;4985735;28;20271;-53
2021/09/01 05:37:59;;;;;;;2.13;1.63;;;18.10;53.50;;;;;;4992149;28;20304;-45
2021/09/01 05:40:29;;;;;;;1.77;1.67;;;18.10;53.50;;;;;;4992305;28;20252;-48
2021/09/01 05:43:00;;;;;;;3.28;1.83;;;18.10;53.30;;;;;;4973565;28;20256;-45
2021/09/01 05:45:32;;;;;;;2.90;2.10;;;18.00;53.40;;;;;;4973050;28;20206;-51
2021/09/01 05:48:03;;;;;;;3.75;2.08;;;18.00;53.40;;;;;;4971935;28;20246;-48
2021/09/01 05:50:33;;;;;;;2.65;1.92;;;18.00;53.40;;;;;;4976861;28;20240;-52
2021/09/01 05:53:04;;;;;;;1.88;1.70;;;18.00;53.40;;;;;;4991580;28;20228;-48
2021/09/01 05:55:36;;;;;;;3.58;1.70;;;18.00;53.30;;;;;;4992063;28;20312;-49
2021/09/01 05:58:06;;;;;;;3.10;1.77;;;17.90;53.20;;;;;;4989114;28;20221;-48
2021/09/01 06:00:39;;;;;;;3.30;2.00;;;17.90;53.20;;;;;;4974062;28;20650;-48
2021/09/01 06:03:13;;;;;;;2.85;1.67;;;17.90;53.10;;;;;;4972163;28;20297;-46
2021/09/01 06:05:43;;;;;;;2.33;1.70;;;17.90;53.10;;;;;;4972371;28;20241;-48
2021/09/01 06:08:14;;;;;;;1.70;1.60;;;17.90;53.20;;;;;;4972146;28;20617;-47
2021/09/01 06:10:44;;;;;;;2.00;1.67;;;17.90;53.30;;;;;;4971570;28;20539;-53
2021/09/01 06:13:15;;;;;;;3.97;1.60;;;17.80;53.20;;;;;;4972237;28;20583;-48
2021/09/01 06:15:47;;;;;;;2.83;1.70;;;17.80;53.30;;;;;;4972061;28;20288;-51
2021/09/01 06:18:17;;;;;;;1.85;1.75;;;17.80;53.30;;;;;;4983039;28;20218;-47
2021/09/01 06:20:48;;;;;;;2.70;1.98;;;17.80;53.40;;;;;;4990713;28;20232;-47
2021/09/01 06:23:19;;;;;;;3.13;2.30;;;17.80;53.40;;;;;;4992133;28;20197;-46
2021/09/01 06:25:49;;;;;;;2.47;2.00;;;17.80;53.50;;;;;;4991290;28;20205;-48
2021/09/01 06:28:20;;;;;;;1.88;1.77;;;17.80;53.50;;;;;;4991256;28;20252;-48
2021/09/01 06:30:52;;;;;;;3.70;2.28;;;17.70;53.50;;;;;;4991695;28;20280;-49
2021/09/01 06:33:22;;;;;;;2.10;1.85;;;17.70;53.60;;;;;;4991022;28;20212;-49
2021/09/01 06:35:53;;;;;;;2.65;1.88;;;17.70;53.60;;;;;;4991568;28;20225;-51
2021/09/01 06:38:26;;;;;;;3.03;2.20;;;17.60;53.60;;;;;;4987727;28;20690;-48
2021/09/01 06:40:57;;;;;;;2.50;2.20;;;17.70;53.70;;;;;;4991935;28;20233;-52
2021/09/01 06:43:27;;;;;;;2.20;2.00;;;17.60;53.50;;;;;;4988405;28;20221;-50
2021/09/01 06:45:59;;;;;;;2.47;2.13;;;17.60;53.50;;;;;;4991279;28;20201;-53
2021/09/01 06:48:30;;;;;;;2.03;1.90;;;17.60;54.10;;;;;;4991201;28;20276;-47
2021/09/01 06:51:00;;;;;;;2.25;2.03;;;17.50;53.40;;;;;;4991176;28;20236;-47
2021/09/01 06:53:31;;;;;;;3.17;2.47;;;17.50;53.60;;;;;;4991439;28;20240;-46
2021/09/01 06:56:01;;;;;;;2.65;2.25;;;17.50;53.60;;;;;;4990592;28;20283;-52
2021/09/01 06:58:31;;;;;;;3.28;2.70;;;17.50;53.70;;;;;;4993485;28;20248;-47
2021/09/01 07:01:04;;;;;;;4.05;3.25;;;17.40;53.70;;;;;;4998148;28;20197;-47
2021/09/01 07:03:34;;;;;;;5.88;2.40;;;17.40;53.80;;;;;;4997687;28;20249;-48
2021/09/01 07:06:05;;;;;;;3.90;2.75;;;17.50;53.90;;;;;;4997155;28;20240;-51
2021/09/01 07:08:35;;;;;;;2.83;2.45;;;17.40;53.90;;;;;;4996740;28;20252;-52
2021/09/01 07:11:06;;;;;;;3.75;3.00;;;17.40;53.90;;;;;;4997530;28;20193;-49
2021/09/01 07:13:36;;;;;;;3.50;3.17;;;17.40;53.80;;;;;;5017422;23;20286;-52
2021/09/01 07:16:08;;;;;;;3.67;3.08;;;17.40;53.90;;;;;;5016517;28;20315;-51
2021/09/01 07:18:39;;;;;;;4.07;3.45;;;17.30;53.80;;;;;;5016267;28;20258;-54
2021/09/01 07:21:09;;;;;;;4.60;3.58;;;17.30;53.80;;;;;;5016439;28;20279;-49
2021/09/01 07:23:40;;;;;;;3.53;3.03;;;17.30;53.80;;;;;;5017348;28;20228;-44
2021/09/01 07:26:12;;;;;;;5.72;3.65;;;17.20;53.80;;;;;;5017342;28;20246;-54
2021/09/01 07:28:42;;;;;;;5.28;3.55;;;17.20;53.80;;;;;;5024207;28;20304;-50
2021/09/01 07:31:14;;;;;;;3.78;2.67;;;17.20;53.80;;;;;;5037632;28;20515;-47
2021/09/01 07:33:45;;;;;;;3.72;3.03;;;17.10;53.80;;;;;;5036692;28;20250;-53
2021/09/01 07:36:15;;;;;;;3.65;3.35;;;17.10;53.90;;;;;;5036912;28;20259;-50
2021/09/01 07:38:46;;;;;;;3.67;3.10;;;17.10;53.90;;;;;;5037415;28;20251;-47
2021/09/01 07:41:16;;;;;;;4.28;3.22;;;17.10;53.90;;;;;;5037313;28;20238;-51
2021/09/01 07:43:47;;;;;;;4.07;3.17;;;17.10;53.90;;;;;;5037013;28;20274;-50
2021/09/01 07:46:19;;;;;;;4.90;3.47;;;17.00;53.90;;;;;;5036955;28;20242;-48
2021/09/01 07:48:49;;;;;;;3.60;2.72;;;17.00;53.90;;;;;;5037014;28;20239;-53
2021/09/01 07:51:20;;;;;;;3.50;2.97;;;17.00;53.90;;;;;;5036807;28;20192;-50
2021/09/01 07:53:50;;;;;;;3.90;2.75;;;17.00;53.90;;;;;;5022916;28;20272;-54
2021/09/01 07:56:20;;;;;;;4.53;2.80;;;16.90;53.80;;;;;;5016784;28;20653;-50
2021/09/01 07:58:51;;;;;;;7.88;4.22;;;16.90;53.90;;;;;;5016689;28;20704;-42
2021/09/01 08:01:23;;;;;;;9.13;5.95;;;16.90;54.10;;;;;;5017110;28;20681;-51
2021/09/01 08:03:54;;;;;;;10.68;5.60;;;16.90;54.90;;;;;;5016875;28;20632;-42
2021/09/01 08:06:24;;;;;;;7.85;5.25;;;16.90;55.10;;;;;;5016859;28;20618;-45
2021/09/01 08:08:54;;;;;;;8.07;5.30;;;16.90;55.30;;;;;;5016814;28;20267;-44
2021/09/01 08:11:25;;;;;;;9.45;6.03;;;16.90;55.50;;;;;;5013869;28;20236;-52
2021/09/01 08:13:55;;;;;;;10.20;5.10;;;16.90;55.60;;;;;;5012808;23;20455;-56
2021/09/01 08:16:28;;;;;;;6.63;4.13;;;16.90;55.60;;;;;;5000874;28;20308;-43
2021/09/01 08:18:58;;;;;;;7.72;4.60;;;16.90;55.40;;;;;;5013211;28;20217;-42
2021/09/01 08:21:29;;;;;;;6.63;4.53;;;16.90;55.30;;;;;;5009427;28;20280;-46
2021/09/01 08:23:59;;;;;;;7.70;4.82;;;16.80;55.10;;;;;;5002366;28;20233;-45
2021/09/01 08:26:29;;;;;;;6.07;4.45;;;16.80;55.10;;;;;;4993829;28;20240;-50
2021/09/01 08:29:00;;;;;;;7.80;4.93;;;16.80;55.00;;;;;;4993295;28;20304;-50
2021/09/01 08:31:32;;;;;;;7.70;4.78;;;16.80;54.90;;;;;;4993776;28;20327;-60
2021/09/01 08:34:03;;;;;;;7.10;4.80;;;16.80;54.80;;;;;;4993123;28;20285;-45
2021/09/01 08:36:33;;;;;;;7.30;4.90;;;16.70;54.70;;;;;;4992879;28;20261;-44
2021/09/01 08:39:03;;;;;;;6.80;4.47;;;16.70;54.70;;;;;;4993392;28;20249;-42
2021/09/01 08:41:34;;;;;;;9.02;5.15;;;16.70;54.60;;;;;;4993416;28;20233;-42
2021/09/01 08:44:04;;;;;;;7.78;4.45;;;16.70;54.60;;;;;;4992374;28;20656;-46
2021/09/01 08:46:38;;;;;;;7.18;4.50;;;16.60;54.60;;;;;;4993301;28;20255;-44
2021/09/01 08:49:08;;;;;;;8.60;5.05;;;16.60;54.60;;;;;;4993251;28;20225;-44
2021/09/01 08:51:39;;;;;;;6.90;4.78;;;16.50;54.80;;;;;;4993084;28;20244;-50
2021/09/01 08:54:09;;;;;;;8.57;5.10;;;16.50;54.90;;;;;;4988494;28;20244;-56
2021/09/01 08:56:40;;;;;;;6.88;4.78;;;16.50;54.80;;;;;;4990246;28;20233;-45
2021/09/01 08:59:10;;;;;;;6.82;4.57;;;16.50;54.80;;;;;;4990556;28;20778;-59
2021/09/01 09:01:49;;;;;;;7.57;5.07;;;16.50;54.80;;;;;;4988802;28;20666;-57
2021/09/01 09:04:21;;;;;;;5.35;4.55;;;16.50;54.80;;;;;;4989498;28;20592;-55
2021/09/01 09:06:51;;;;;;;8.15;5.10;;;16.40;54.70;;;;;;4988834;28;20278;-49
2021/09/01 09:09:22;;;;;;;7.35;4.85;;;16.40;54.60;;;;;;4989991;28;20308;-57
2021/09/01 09:11:53;;;;;;;6.95;4.60;;;16.40;54.70;;;;;;4990257;28;20713;-49
2021/09/01 09:14:25;;;;;;;7.38;4.60;;;16.40;54.60;;;;;;4990114;28;20320;-57
2021/09/01 09:17:10;;;;;;;6.53;4.63;;;16.30;54.60;;;;;;4990304;28;20297;-51
2021/09/01 09:19:51;;;;;;;7.00;4.93;;;16.30;54.60;;;;;;4990114;28;20591;-53
2021/09/01 09:22:23;;;;;;;7.80;4.75;;;16.20;54.60;;;;;;4990462;28;20201;-49
2021/09/01 09:25:09;;;;;;;6.88;4.38;;;16.20;54.60;;;;;;4990197;28;20202;-61
2021/09/01 09:27:47;;;;;;;7.75;4.43;;;16.20;54.60;;;;;;4989483;28;20280;-58
2021/09/01 09:30:44;;;;;;;7.40;4.50;;;16.20;54.60;;;;;;4988878;28;20201;-46
2021/09/01 09:33:18;;;;;;;6.53;4.50;;;16.10;54.50;;;;;;4988747;28;20201;-50
2021/09/01 09:35:56;;;;;;;8.75;4.95;;;16.10;54.60;;;;;;4988717;28;20323;-55
2021/09/01 09:38:41;;;;;;;6.90;4.63;;;16.10;54.60;;;;;;4989325;28;20217;-53
2021/09/01 09:41:22;;;;;;;6.20;4.50;;;16.00;54.60;;;;;;4989037;28;20232;-51
2021/09/01 09:43:52;;;;;;;6.88;4.45;;;16.00;54.60;;;;;;5005386;28;20196;-51
2021/09/01 09:46:23;;;;;;;7.57;4.55;;;16.00;54.60;;;;;;5009314;28;20236;-47
2021/09/01 09:48:55;;;;;;;6.35;4.60;;;16.00;54.60;;;;;;5009085;28;20471;-46
2021/09/01 09:51:38;;;;;;;6.78;4.15;;;15.90;54.60;;;;;;5009715;28;20704;-44
2021/09/01 09:54:19;;;;;;;6.70;4.35;;;15.90;54.60;;;;;;5007518;28;20295;-45
2021/09/01 09:56:49;;;;;;;5.47;3.53;;;15.90;54.60;;;;;;5009032;28;20260;-52
2021/09/01 09:59:20;;;;;;;8.65;4.78;;;15.90;54.60;;;;;;5005559;28;20260;-58
2021/09/01 10:01:51;;;;;;;5.60;4.20;;;15.80;54.50;;;;;;4985593;28;20746;-50
2021/09/01 10:04:23;;;;;;;5.80;4.00;;;15.80;54.60;;;;;;4988738;28;20233;-46
2021/09/01 10:06:54;;;;;;;6.53;4.20;;;15.80;54.60;;;;;;4988648;28;20287;-59
2021/09/01 10:09:25;;;;;;;5.55;3.83;;;15.80;54.60;;;;;;4988710;28;20296;-45
2021/09/01 10:11:55;;;;;;;5.90;4.47;;;15.70;54.60;;;;;;4989131;28;20205;-53
2021/09/01 10:14:26;;;;;;;6.63;3.65;;;15.70;54.60;;;;;;4989894;28;20299;-46
2021/09/01 10:17:00;;;;;;;6.13;3.80;;;15.70;54.60;;;;;;4988653;28;20312;-48
2021/09/01 10:19:34;;;;;;;5.70;3.92;;;15.70;54.60;;;;;;4988845;28;20253;-44
2021/09/01 10:22:05;;;;;;;5.63;3.80;;;15.70;54.70;;;;;;4989048;28;20197;-62
2021/09/01 10:24:36;;;;;;;5.25;4.30;;;15.70;54.80;;;;;;4988837;28;20239;-47
2021/09/01 10:27:11;;;;;;;5.50;3.85;;;15.60;54.70;;;;;;4988006;28;20296;-50
2021/09/01 10:29:46;;;;;;;5.63;3.75;;;15.60;54.80;;;;;;4982194;28;20225;-59
2021/09/01 10:32:37;;;;;;;5.78;3.50;;;15.60;54.80;;;;;;4971146;28;20612;-54
2021/09/01 10:35:32;;;;;;;4.22;3.47;;;15.60;54.80;;;;;;4971391;28;20234;-57
2021/09/01 10:38:09;;;;;;;5.20;3.38;;;15.60;54.80;;;;;;4970199;28;20222;-56
2021/09/01 10:41:07;;;;;;;5.70;4.05;;;15.50;54.70;;;;;;4972040;28;20233;-53
2021/09/01 10:43:38;;;;;;;5.85;3.75;;;15.50;54.80;;;;;;4971842;28;20209;-52
2021/09/01 10:46:08;;;;;;;5.15;3.45;;;15.50;54.70;;;;;;4972147;28;20245;-57
2021/09/01 10:48:59;;;;;;;4.55;3.60;;;15.40;54.80;;;;;;4971390;28;20730;-61
2021/09/01 10:51:31;;;;;;;6.18;3.45;;;15.50;54.80;;;;;;4972359;28;20198;-59
2021/09/01 10:54:29;;;;;;;5.57;3.75;;;15.40;54.80;;;;;;4971453;28;20284;-60
2021/09/01 10:56:59;;;;;;;5.38;3.75;;;15.40;54.80;;;;;;4971088;28;20230;-64
2021/09/01 10:59:30;;;;;;;4.55;3.55;;;15.40;54.80;;;;;;4971766;28;20264;-58
2021/09/01 11:02:10;;;;;;;5.65;4.07;;;15.40;54.80;;;;;;4972134;28;20245;-60
2021/09/01 11:04:47;;;;;;;5.63;3.50;;;15.30;54.90;;;;;;4970373;28;20619;-61
2021/09/01 11:07:24;;;;;;;6.07;3.97;;;15.40;54.90;;;;;;4971985;28;20240;-61
2021/09/01 11:09:55;;;;;;;5.15;3.67;;;15.30;54.90;;;;;;4971518;28;20729;-63
2021/09/01 11:12:25;;;;;;;5.25;3.00;;;15.30;55.40;;;;;;4970698;28;20194;-64
2021/09/01 11:14:56;;;;;;;4.85;3.63;;;15.30;54.90;;;;;;4970500;28;20745;-52
2021/09/01 11:17:27;;;;;;;5.05;3.38;;;15.30;54.90;;;;;;5010318;23;20701;-53
2021/09/01 11:19:58;;;;;;;5.85;3.42;;;15.20;54.80;;;;;;5010964;28;20248;-53
2021/09/01 11:22:31;;;;;;;3.97;3.10;;;15.20;54.90;;;;;;5011257;28;20200;-52
2021/09/01 11:25:04;;;;;;;4.43;3.42;;;15.20;54.90;;;;;;5010815;28;20263;-48
2021/09/01 11:27:35;;;;;;;5.65;3.63;;;15.20;54.90;;;;;;5011007;28;20197;-49
2021/09/01 11:30:07;;;;;;;4.53;3.05;;;15.20;54.90;;;;;;5011290;28;20623;-48
2021/09/01 11:32:38;;;;;;;4.70;3.20;;;15.10;55.00;;;;;;5011315;28;20286;-47
2021/09/01 11:35:10;;;;;;;3.65;3.00;;;15.10;54.90;;;;;;5010890;28;20235;-48
2021/09/01 11:37:43;;;;;;;3.78;3.00;;;15.10;54.90;;;;;;5010841;28;20204;-46
2021/09/01 11:40:14;;;;;;;5.80;3.22;;;15.10;55.00;;;;;;5010932;28;20240;-48
2021/09/01 11:42:44;;;;;;;4.20;3.15;;;15.10;55.00;;;;;;5010292;28;20665;-46
2021/09/01 11:45:15;;;;;;;6.72;4.00;;;15.10;54.90;;;;;;5012487;28;20627;-47
2021/09/01 11:47:46;;;;;;;5.43;3.30;;;15.10;54.90;;;;;;5014477;28;20653;-45
2021/09/01 11:50:20;;;;;;;5.65;3.50;;;15.00;54.90;;;;;;5014388;28;20201;-46
2021/09/01 11:52:57;;;;;;;6.47;3.33;;;15.00;54.90;;;;;;5014291;28;20197;-47
2021/09/01 11:55:30;;;;;;;5.03;3.95;;;15.00;54.90;;;;;;5013560;28;20220;-46
2021/09/01 11:58:15;;;;;;;5.88;3.55;;;14.90;54.80;;;;;;5013445;28;20252;-47
2021/09/01 12:00:45;;;;;;;4.85;3.30;;;14.90;54.80;;;;;;5013700;28;20704;-46
2021/09/01 12:03:16;;;;;;;4.75;3.30;;;14.90;54.90;;;;;;5014023;28;20228;-47
2021/09/01 12:05:46;;;;;;;5.75;3.35;;;14.90;54.80;;;;;;5014060;28;20611;-46
2021/09/01 12:08:22;;;;;;;4.38;3.63;;;14.90;54.90;;;;;;5014156;28;20671;-48
2021/09/01 12:10:54;;;;;;;5.95;3.40;;;14.90;54.90;;;;;;5013645;28;20299;-47
2021/09/01 12:13:40;;;;;;;4.75;2.97;;;14.90;55.00;;;;;;4994546;28;20566;-50
2021/09/01 12:16:11;;;;;;;5.53;3.47;;;14.80;54.90;;;;;;4994536;28;20225;-51
2021/09/01 12:18:56;;;;;;;6.05;3.30;;;14.80;54.90;;;;;;4993923;28;20221;-50
2021/09/01 12:21:26;;;;;;;3.88;3.08;;;14.80;54.90;;;;;;4994198;28;20201;-50
2021/09/01 12:24:17;;;;;;;4.72;3.13;;;14.80;54.90;;;;;;4994548;28;20197;-49
2021/09/01 12:26:52;;;;;;;4.85;3.20;;;14.80;54.90;;;;;;4994395;28;20693;-49
2021/09/01 12:29:33;;;;;;;3.47;2.70;;;14.70;54.80;;;;;;4993873;28;20716;-49
2021/09/01 12:32:03;;;;;;;4.22;3.00;;;14.80;55.00;;;;;;4994040;28;20255;-49
2021/09/01 12:34:35;;;;;;;4.68;2.90;;;14.70;54.90;;;;;;4994287;28;20237;-47
2021/09/01 12:37:07;;;;;;;4.43;3.08;;;14.70;54.90;;;;;;4994731;28;20276;-46
2021/09/01 12:39:51;;;;;;;5.63;2.95;;;14.70;54.90;;;;;;4994654;28;20248;-52
2021/09/01 12:42:32;;;;;;;5.70;3.25;;;14.70;54.90;;;;;;4993638;28;20720;-51
2021/09/01 12:45:03;;;;;;;3.72;2.65;;;14.60;54.90;;;;;;4993630;28;20197;-54
2021/09/01 12:47:33;;;;;;;4.78;2.90;;;14.60;54.90;;;;;;4994095;28;20240;-48
2021/09/01 12:50:05;;;;;;;3.75;2.70;;;14.60;55.00;;;;;;4994064;28;20253;-47
2021/09/01 12:52:35;;;;;;;3.80;2.97;;;14.60;55.00;;;;;;4994013;28;20616;-49
2021/09/01 12:55:08;;;;;;;3.33;2.55;;;14.60;55.00;;;;;;4993975;28;20726;-49
2021/09/01 12:57:39;;;;;;;4.65;3.08;;;14.60;55.00;;;;;;4992988;28;20225;-48
2021/09/01 13:00:10;;;;;;;4.28;3.10;;;14.60;55.00;;;;;;4993594;28;20231;-51
2021/09/01 13:02:41;;;;;;;4.57;3.03;;;14.60;54.90;;;;;;4992876;28;20284;-45
2021/09/01 13:05:12;;;;;;;3.95;2.78;;;14.50;54.90;;;;;;4992951;28;20197;-45
2021/09/01 13:07:42;;;;;;;4.32;2.75;;;14.50;54.90;;;;;;4993106;28;20237;-47
2021/09/01 13:10:15;;;;;;;6.95;3.20;;;14.50;54.90;;;;;;4993384;28;20245;-48
2021/09/01 13:12:45;;;;;;;3.45;2.63;;;14.50;54.90;;;;;;4993302;28;20233;-47
2021/09/01 13:15:16;;;;;;;3.80;2.70;;;14.50;54.90;;;;;;4993351;28;20241;-46